createdAt,value
2022-11-13T00:00:58.218Z,7.56
2022-11-13T00:04:03.782Z,7.52
2022-11-13T00:07:09.212Z,7.51
2022-11-13T00:10:14.661Z,7.31
2022-11-13T00:13:19.963Z,7.46
2022-11-13T00:16:30.316Z,7.05
2022-11-13T00:19:35.683Z,7.41
2022-11-13T00:22:41.986Z,7.39
2022-11-13T00:25:47.427Z,7.35
2022-11-13T00:28:53.433Z,6.97
2022-11-13T00:31:58.562Z,7.28
2022-11-13T00:35:04.039Z,7.26
2022-11-13T00:38:09.787Z,7.22
2022-11-13T00:41:15.323Z,7.19
2022-11-13T00:44:20.907Z,7.15
2022-11-13T00:47:26.575Z,7.12
2022-11-13T00:50:31.999Z,7.08
2022-11-13T00:53:37.562Z,7.03
2022-11-13T00:56:43.008Z,6.69
2022-11-13T00:59:48.362Z,6.93
2022-11-13T01:02:53.687Z,6.88
2022-11-13T01:06:02.026Z,6.75
2022-11-13T01:09:07.939Z,6.76
2022-11-13T01:12:13.647Z,6.71
2022-11-13T01:15:19.724Z,6.32
2022-11-13T01:18:25.579Z,6.62
2022-11-13T01:21:38.062Z,6.56
2022-11-13T01:24:43.282Z,6.50
2022-11-13T01:27:48.459Z,6.32
2022-11-13T01:30:53.983Z,6.41
2022-11-13T01:33:59.514Z,6.33
2022-11-13T01:37:05.069Z,6.30
2022-11-13T01:40:10.395Z,6.14
2022-11-13T01:43:16.207Z,6.20
2022-11-13T01:46:36.653Z,6.13
2022-11-13T01:50:01.018Z,6.09
2022-11-13T01:53:06.159Z,5.55
2022-11-13T01:56:12.336Z,6.00
2022-11-13T01:59:40.122Z,5.96
2022-11-13T02:02:46.010Z,5.93
2022-11-13T02:05:51.311Z,5.89
2022-11-13T02:08:56.717Z,5.85
2022-11-13T02:12:02.239Z,5.82
2022-11-13T02:15:12.013Z,5.78
2022-11-13T02:18:20.561Z,5.73
2022-11-13T02:21:54.962Z,5.68
2022-11-13T02:25:02.894Z,5.66
2022-11-13T02:28:10.366Z,5.63
2022-11-13T02:31:15.536Z,5.57
2022-11-13T02:34:24.150Z,5.58
2022-11-13T02:37:29.363Z,5.56
2022-11-13T02:40:34.999Z,5.50
2022-11-13T02:43:40.220Z,5.53
2022-11-13T02:46:45.950Z,5.51
2022-11-13T02:49:51.247Z,5.44
2022-11-13T02:52:57.005Z,5.50
2022-11-13T02:56:02.453Z,5.49
2022-11-13T02:59:07.712Z,5.43
2022-11-13T03:02:13.383Z,5.47
2022-11-13T03:05:18.883Z,5.46
2022-11-13T03:08:26.294Z,5.44
2022-11-13T03:11:32.204Z,5.42
2022-11-13T03:14:37.960Z,5.40
2022-11-13T03:17:43.209Z,5.38
2022-11-13T03:20:48.460Z,5.35
2022-11-13T03:23:54.058Z,5.35
2022-11-13T03:26:59.183Z,5.32
2022-11-13T03:30:04.304Z,5.30
2022-11-13T03:33:14.011Z,5.28
2022-11-13T03:36:19.253Z,5.23
2022-11-13T03:39:25.330Z,5.24
2022-11-13T03:42:30.979Z,4.82
2022-11-13T03:45:36.639Z,5.22
2022-11-13T03:48:42.127Z,5.22
2022-11-13T03:51:47.507Z,5.20
2022-11-13T03:54:52.711Z,5.20
2022-11-13T03:57:57.978Z,5.19
2022-11-13T04:01:05.099Z,5.18
2022-11-13T04:04:10.730Z,5.09
2022-11-13T04:07:16.693Z,4.98
2022-11-13T04:10:22.502Z,5.14
2022-11-13T04:13:28.385Z,5.11
2022-11-13T04:16:33.843Z,5.10
2022-11-13T04:19:39.194Z,5.06
2022-11-13T04:22:45.001Z,5.05
2022-11-13T04:25:50.352Z,5.00
2022-11-13T04:28:55.896Z,5.00
2022-11-13T04:32:01.060Z,4.98
2022-11-13T04:35:06.689Z,4.46
2022-11-13T04:38:12.155Z,4.75
2022-11-13T04:41:16.135Z,4.93
2022-11-13T04:44:21.335Z,4.82
2022-11-13T04:47:26.983Z,4.89
2022-11-13T04:50:32.949Z,4.88
2022-11-13T04:53:38.222Z,4.88
2022-11-13T04:56:43.887Z,4.86
2022-11-13T04:59:49.304Z,4.84
2022-11-13T05:02:55.106Z,4.85
2022-11-13T05:06:00.798Z,4.84
2022-11-13T05:09:06.568Z,4.84
2022-11-13T05:12:12.104Z,4.86
2022-11-13T05:15:17.250Z,4.77
2022-11-13T05:18:22.859Z,4.87
2022-11-13T05:21:29.508Z,4.87
2022-11-13T05:24:34.841Z,4.87
2022-11-13T05:27:40.219Z,4.88
2022-11-13T05:30:46.507Z,4.88
2022-11-13T05:33:52.213Z,4.87
2022-11-13T05:36:57.869Z,4.87
2022-11-13T05:40:03.245Z,4.87
2022-11-13T05:43:08.790Z,4.78
2022-11-13T05:46:20.601Z,4.86
2022-11-13T05:49:26.067Z,4.86
2022-11-13T05:52:31.688Z,4.86
2022-11-13T05:55:37.268Z,4.87
2022-11-13T05:58:42.630Z,4.87
2022-11-13T06:01:49.993Z,4.87
2022-11-13T06:04:56.509Z,4.88
2022-11-13T06:08:02.370Z,4.89
2022-11-13T06:11:07.643Z,4.88
2022-11-13T06:14:14.699Z,4.88
2022-11-13T06:17:20.531Z,4.67
2022-11-13T06:20:26.156Z,4.89
2022-11-13T06:23:31.534Z,4.86
2022-11-13T06:26:40.038Z,4.87
2022-11-13T06:29:45.651Z,4.85
2022-11-13T06:32:51.478Z,4.88
2022-11-13T06:35:57.067Z,4.88
2022-11-13T06:39:03.592Z,4.88
2022-11-13T06:42:08.967Z,4.86
2022-11-13T06:45:14.430Z,4.84
2022-11-13T06:48:19.766Z,4.84
2022-11-13T06:51:27.673Z,4.74
2022-11-13T06:54:33.004Z,4.80
2022-11-13T06:57:38.131Z,4.79
2022-11-13T07:00:43.687Z,4.73
2022-11-13T07:03:48.775Z,4.75
2022-11-13T07:06:54.363Z,4.71
2022-11-13T07:09:59.783Z,4.74
2022-11-13T07:13:05.183Z,4.72
2022-11-13T07:16:16.861Z,4.63
2022-11-13T07:19:23.108Z,4.72
2022-11-13T07:22:28.646Z,4.70
2022-11-13T07:25:34.083Z,4.69
2022-11-13T07:28:39.500Z,4.64
2022-11-13T07:31:45.019Z,4.66
2022-11-13T07:34:50.222Z,4.69
2022-11-13T07:37:56.411Z,4.70
2022-11-13T07:41:01.990Z,4.69
2022-11-13T07:44:09.448Z,4.70
2022-11-13T07:47:15.506Z,4.69
2022-11-13T07:50:21.071Z,4.68
2022-11-13T07:53:28.408Z,4.68
2022-11-13T07:56:33.868Z,4.68
2022-11-13T07:59:39.374Z,4.67
2022-11-13T08:02:44.756Z,4.67
2022-11-13T08:05:50.825Z,4.67
2022-11-13T08:08:56.316Z,4.66
2022-11-13T08:12:01.995Z,4.60
2022-11-13T08:15:10.708Z,4.48
2022-11-13T08:18:21.950Z,4.63
2022-11-13T08:21:27.220Z,4.62
2022-11-13T08:24:32.877Z,4.63
2022-11-13T08:27:38.553Z,4.62
2022-11-13T08:30:45.385Z,4.63
2022-11-13T08:33:51.292Z,4.37
2022-11-13T08:36:56.875Z,4.63
2022-11-13T08:40:02.305Z,4.65
2022-11-13T08:43:07.479Z,4.66
2022-11-13T08:46:12.855Z,4.66
2022-11-13T08:49:18.382Z,4.64
2022-11-13T08:52:24.247Z,4.69
2022-11-13T08:55:29.797Z,4.72
2022-11-13T08:58:35.537Z,4.75
2022-11-13T09:01:40.766Z,4.77
2022-11-13T09:04:46.799Z,4.65
2022-11-13T09:07:52.384Z,4.84
2022-11-13T09:10:57.471Z,4.86
2022-11-13T09:14:02.936Z,4.89
2022-11-13T09:17:08.640Z,4.93
2022-11-13T09:20:14.651Z,4.96
2022-11-13T09:23:24.112Z,4.97
2022-11-13T09:26:29.834Z,4.99
2022-11-13T09:29:35.176Z,5.06
2022-11-13T09:32:40.706Z,5.11
2022-11-13T09:35:55.892Z,5.14
2022-11-13T09:39:02.056Z,5.19
2022-11-13T09:42:13.079Z,5.21
2022-11-13T09:45:25.976Z,5.25
2022-11-13T09:48:50.802Z,5.05
2022-11-13T09:52:00.603Z,5.34
2022-11-13T09:55:08.442Z,5.25
2022-11-13T09:58:21.543Z,5.41
2022-11-13T10:01:41.921Z,5.44
2022-11-13T10:04:58.156Z,5.49
2022-11-13T10:08:22.108Z,5.54
2022-11-13T10:11:42.263Z,5.59
2022-11-13T10:15:10.758Z,5.63
2022-11-13T10:18:21.671Z,5.67
2022-11-13T10:21:40.672Z,5.71
2022-11-13T10:24:48.770Z,5.77
2022-11-13T10:27:54.355Z,5.78
2022-11-13T10:31:01.099Z,5.86
2022-11-13T10:34:06.537Z,5.77
2022-11-13T10:37:32.603Z,5.96
2022-11-13T10:40:48.119Z,6.01
2022-11-13T10:43:53.966Z,6.03
2022-11-13T11:29:50.403Z,6.49
2022-11-13T11:33:03.866Z,6.20
2022-11-13T11:36:28.044Z,6.60
2022-11-13T11:39:39.804Z,6.63
2022-11-13T11:42:56.593Z,6.65
2022-11-13T11:46:04.655Z,6.69
2022-11-13T11:49:11.138Z,6.73
2022-11-13T11:52:36.479Z,6.77
2022-11-13T11:55:50.999Z,6.81
2022-11-13T11:59:26.426Z,6.83
2022-11-13T12:03:01.394Z,6.79
2022-11-13T12:06:15.802Z,6.85
2022-11-13T12:09:24.425Z,6.86
2022-11-13T12:12:32.294Z,6.87
2022-11-13T12:15:55.026Z,6.87
2022-11-13T12:19:11.392Z,6.86
2022-11-13T12:22:17.335Z,6.87
2022-11-13T12:25:20.919Z,6.89
2022-11-13T12:28:40.813Z,6.91
2022-11-13T12:31:44.759Z,6.91
2022-11-13T12:34:33.832Z,6.92
2022-11-13T12:37:26.675Z,6.92
2022-11-13T12:40:44.680Z,6.91
2022-11-13T12:43:45.278Z,6.90
2022-11-13T12:46:40.104Z,6.89
2022-11-13T12:49:49.664Z,6.89
2022-11-13T12:52:55.245Z,6.87
2022-11-13T12:55:41.112Z,6.87
2022-11-13T12:58:32.287Z,6.87
2022-11-13T13:01:20.783Z,6.88
2022-11-13T13:04:29.022Z,6.78
2022-11-13T13:07:36.071Z,6.90
2022-11-13T13:10:35.091Z,6.89
2022-11-13T13:13:25.998Z,6.59
2022-11-13T13:16:12.166Z,6.87
2022-11-13T13:19:22.666Z,6.36
2022-11-13T13:22:32.498Z,6.82
2022-11-13T13:25:27.720Z,6.81
2022-11-13T13:28:21.631Z,6.79
2022-11-13T13:31:26.071Z,6.77
2022-11-13T13:34:46.960Z,6.75
2022-11-13T13:37:49.871Z,6.71
2022-11-13T13:40:41.195Z,6.67
2022-11-13T13:43:51.382Z,6.62
2022-11-13T13:46:37.458Z,6.60
2022-11-13T13:49:24.803Z,6.57
2022-11-13T13:52:15.676Z,6.23
2022-11-13T13:55:04.062Z,6.23
2022-11-13T13:57:50.095Z,6.45
2022-11-13T14:00:44.603Z,6.42
2022-11-13T14:03:39.127Z,6.40
2022-11-13T14:06:24.934Z,6.35
2022-11-13T14:09:17.074Z,6.32
2022-11-13T14:15:33.383Z,6.21
2022-11-13T14:18:19.816Z,6.18
2022-11-13T14:21:16.172Z,5.97
2022-11-13T14:24:03.663Z,5.86
2022-11-13T14:26:52.886Z,6.01
2022-11-13T14:29:49.080Z,5.72
2022-11-13T14:32:45.645Z,5.97
2022-11-13T14:35:32.870Z,5.94
2022-11-13T14:38:21.456Z,5.90
2022-11-13T14:41:15.219Z,5.85
2022-11-13T14:44:01.069Z,5.81
2022-11-13T14:46:47.579Z,5.74
2022-11-13T14:49:37.720Z,5.66
2022-11-13T14:52:28.239Z,5.68
2022-11-13T14:55:32.128Z,5.64
2022-11-13T14:58:36.411Z,5.57
2022-11-13T15:01:24.713Z,5.55
2022-11-13T15:04:10.179Z,5.50
2022-11-13T15:07:00.295Z,5.39
2022-11-13T15:09:46.047Z,5.40
2022-11-13T15:12:31.471Z,5.34
2022-11-13T15:15:23.221Z,5.30
2022-11-13T15:18:16.899Z,5.25
2022-11-13T15:21:02.923Z,5.21
2022-11-13T15:23:48.214Z,5.16
2022-11-13T15:26:33.414Z,5.13
2022-11-13T15:29:18.726Z,5.07
2022-11-13T15:32:04.078Z,4.96
2022-11-13T15:34:49.871Z,4.85
2022-11-13T15:37:35.314Z,4.79
2022-11-13T15:40:20.570Z,4.75
2022-11-13T15:43:11.891Z,4.73
2022-11-13T15:45:57.818Z,4.69
2022-11-13T15:48:43.306Z,4.66
2022-11-13T15:52:03.964Z,4.63
2022-11-13T15:55:09.850Z,4.59
2022-11-13T15:58:15.673Z,4.56
2022-11-13T16:01:20.915Z,4.43
2022-11-13T16:04:50.486Z,4.48
2022-11-13T16:07:51.995Z,4.39
2022-11-13T16:10:57.363Z,4.29
2022-11-13T16:14:03.379Z,4.32
2022-11-13T16:17:06.619Z,4.31
2022-11-13T16:20:13.956Z,4.24
2022-11-13T16:23:19.427Z,4.18
2022-11-13T16:26:25.424Z,4.13
2022-11-13T16:29:38.802Z,4.14
2022-11-13T16:32:44.155Z,4.09
2022-11-13T16:35:49.559Z,4.04
2022-11-13T16:38:55.138Z,3.86
2022-11-13T16:42:00.406Z,3.96
2022-11-13T16:45:05.991Z,3.93
2022-11-13T16:48:11.264Z,3.88
2022-11-13T16:51:16.792Z,3.84
2022-11-13T16:54:22.368Z,3.73
2022-11-13T16:57:32.539Z,3.77
2022-11-13T17:00:39.631Z,3.73
2022-11-13T17:03:44.886Z,3.64
2022-11-13T17:06:56.579Z,3.65
2022-11-13T17:10:29.806Z,3.62
2022-11-13T17:13:30.989Z,3.40
2022-11-13T17:16:37.375Z,3.53
2022-11-13T17:19:42.533Z,3.48
2022-11-13T17:22:48.078Z,3.39
2022-11-13T17:25:53.716Z,3.42
2022-11-13T17:28:59.379Z,3.37
2022-11-13T17:32:04.925Z,3.37
2022-11-13T17:35:10.670Z,3.34
2022-11-13T17:38:15.749Z,3.32
2022-11-13T17:41:29.247Z,3.28
2022-11-13T17:44:34.934Z,3.27
2022-11-13T17:47:40.221Z,3.25
2022-11-13T17:50:45.427Z,3.22
2022-11-13T17:53:51.133Z,3.21
2022-11-13T17:56:56.602Z,3.13
2022-11-13T18:00:02.379Z,3.15
2022-11-13T18:03:07.907Z,3.13
2022-11-13T18:06:13.669Z,2.62
2022-11-13T18:09:21.222Z,3.08
2022-11-13T18:12:26.875Z,3.06
2022-11-13T18:15:32.501Z,3.05
2022-11-13T18:18:37.606Z,3.03
2022-11-13T18:21:46.412Z,3.01
2022-11-13T18:24:51.623Z,2.98
2022-11-13T18:27:57.378Z,2.94
2022-11-13T18:31:03.143Z,2.93
2022-11-13T18:34:09.113Z,2.93
2022-11-13T18:37:15.110Z,2.91
2022-11-13T18:40:20.761Z,2.90
2022-11-13T18:43:26.378Z,2.89
2022-11-13T18:46:34.066Z,2.83
2022-11-13T18:49:39.970Z,2.85
2022-11-13T18:52:45.542Z,2.83
2022-11-13T18:55:51.064Z,2.82
2022-11-13T18:58:59.363Z,2.80
2022-11-13T19:02:05.438Z,2.72
2022-11-13T19:05:10.927Z,2.77
2022-11-13T19:08:16.431Z,2.74
2022-11-13T19:11:33.684Z,2.69
2022-11-13T19:14:39.215Z,2.71
2022-11-13T19:17:45.070Z,2.68
2022-11-13T19:20:52.842Z,2.67
2022-11-13T19:23:58.623Z,2.64
2022-11-13T19:27:04.490Z,2.64
2022-11-13T19:30:09.783Z,2.54
2022-11-13T19:33:15.272Z,2.60
2022-11-13T19:36:30.224Z,2.53
2022-11-13T19:39:35.832Z,2.57
2022-11-13T19:42:42.150Z,2.55
2022-11-13T19:45:47.496Z,2.52
2022-11-13T19:48:53.916Z,2.51
2022-11-13T19:51:59.095Z,2.48
2022-11-13T19:55:04.604Z,2.47
2022-11-13T19:58:09.987Z,2.46
2022-11-13T20:01:16.722Z,2.06
2022-11-13T20:04:23.967Z,2.43
2022-11-13T20:07:29.686Z,2.41
2022-11-13T20:10:35.678Z,2.40
2022-11-13T20:13:41.184Z,2.39
2022-11-13T20:16:47.039Z,2.37
2022-11-13T20:19:52.634Z,2.36
2022-11-13T20:22:58.236Z,2.33
2022-11-13T20:26:11.881Z,1.78
2022-11-13T20:29:17.315Z,2.32
2022-11-13T20:32:23.071Z,2.30
2022-11-13T20:35:28.998Z,2.17
2022-11-13T20:38:34.226Z,2.21
2022-11-13T20:41:39.671Z,2.28
2022-11-13T20:44:45.007Z,2.28
2022-11-13T20:47:50.797Z,2.25
2022-11-13T20:50:56.948Z,2.24
2022-11-13T20:54:02.647Z,2.22
2022-11-13T20:57:07.754Z,2.22
2022-11-13T21:00:13.432Z,2.19
2022-11-13T21:03:19.025Z,2.15
2022-11-13T21:06:05.894Z,2.19
2022-11-13T21:08:53.676Z,2.17
2022-11-13T21:11:39.438Z,2.17
2022-11-13T21:14:25.252Z,2.05
2022-11-13T21:17:11.119Z,2.15
2022-11-13T21:19:57.875Z,1.99
2022-11-13T21:22:43.585Z,2.12
2022-11-13T21:25:29.287Z,2.04
2022-11-13T21:28:16.491Z,2.12
2022-11-13T21:31:33.104Z,2.13
2022-11-13T21:34:38.346Z,2.12
2022-11-13T21:37:43.976Z,2.12
2022-11-13T21:40:49.131Z,2.11
2022-11-13T21:43:54.938Z,2.10
2022-11-13T21:47:03.167Z,2.08
2022-11-13T21:50:08.959Z,2.07
2022-11-13T21:53:14.265Z,2.07
2022-11-13T21:56:19.851Z,2.07
2022-11-13T21:59:26.043Z,1.95
2022-11-13T22:02:31.756Z,1.68
2022-11-13T22:05:37.195Z,2.00
2022-11-13T22:08:42.897Z,1.72
2022-11-13T22:11:32.518Z,2.02
2022-11-13T22:14:18.793Z,2.02
2022-11-13T22:17:04.715Z,2.01
2022-11-13T22:19:50.493Z,2.00
2022-11-13T22:22:36.034Z,2.00
2022-11-13T22:25:21.422Z,1.99
2022-11-13T22:28:06.850Z,1.99
2022-11-13T22:30:53.095Z,1.99
2022-11-13T22:33:40.373Z,1.27
2022-11-13T22:36:37.643Z,1.97
2022-11-13T22:39:23.095Z,1.90
2022-11-13T22:42:08.492Z,1.96
2022-11-13T22:44:56.305Z,1.95
2022-11-13T22:47:42.655Z,1.93
2022-11-13T22:50:28.043Z,1.92
2022-11-13T22:53:14.840Z,1.90
2022-11-13T22:56:09.450Z,1.90
2022-11-13T22:58:56.700Z,1.89
2022-11-13T23:01:47.510Z,1.89
2022-11-13T23:04:32.987Z,1.87
2022-11-13T23:07:18.190Z,1.86
2022-11-13T23:10:04.175Z,1.86
2022-11-13T23:12:49.567Z,1.84
2022-11-13T23:15:35.195Z,1.83
2022-11-13T23:18:20.636Z,1.81
2022-11-13T23:21:07.534Z,1.83
2022-11-13T23:23:53.769Z,1.73
2022-11-13T23:26:39.643Z,1.80
2022-11-13T23:29:25.244Z,1.79
2022-11-13T23:32:10.387Z,1.75
2022-11-13T23:34:59.910Z,1.77
2022-11-13T23:37:46.864Z,1.49
2022-11-13T23:40:32.259Z,1.75
2022-11-13T23:43:18.189Z,1.52
2022-11-13T23:46:05.075Z,1.74
2022-11-13T23:48:50.330Z,1.52
2022-11-13T23:51:35.716Z,1.54
2022-11-13T23:54:21.082Z,1.60
2022-11-13T23:57:06.543Z,1.66
2022-11-13T23:59:52.107Z,1.67
